createdAt,value
2019-03-30T00:02:10.887Z,16.53
2019-03-30T00:04:40.944Z,18.07
2019-03-30T00:07:11.049Z,15.83
2019-03-30T00:09:41.149Z,16.03
2019-03-30T00:12:11.259Z,16.53
2019-03-30T00:14:41.554Z,14.87
2019-03-30T00:17:11.718Z,12.63
2019-03-30T00:19:41.877Z,15.10
2019-03-30T00:22:12.028Z,13.83
2019-03-30T00:24:42.096Z,14.07
2019-03-30T00:27:12.259Z,12.37
2019-03-30T00:29:42.286Z,13.17
2019-03-30T00:32:12.347Z,13.87
2019-03-30T00:34:42.589Z,14.77
2019-03-30T00:37:12.769Z,14.60
2019-03-30T00:39:42.765Z,12.70
2019-03-30T00:42:12.850Z,13.53
2019-03-30T00:44:43.006Z,16.00
2019-03-30T00:47:13.116Z,14.80
2019-03-30T00:49:49.129Z,10.77
2019-03-30T00:52:14.902Z,12.73
2019-03-30T00:54:45.024Z,13.00
2019-03-30T00:57:15.153Z,13.27
2019-03-30T00:59:45.217Z,11.87
2019-03-30T01:02:15.311Z,13.23
2019-03-30T01:04:45.362Z,15.77
2019-03-30T01:07:15.405Z,13.83
2019-03-30T01:09:45.443Z,11.27
2019-03-30T01:12:15.515Z,13.30
2019-03-30T01:14:45.588Z,12.13
2019-03-30T01:17:15.612Z,11.40
2019-03-30T01:19:45.648Z,10.30
2019-03-30T01:22:15.679Z,13.47
2019-03-30T01:24:45.731Z,11.80
2019-03-30T01:27:15.813Z,12.73
2019-03-30T01:29:45.881Z,8.43
2019-03-30T01:32:15.906Z,10.97
2019-03-30T01:34:45.999Z,12.23
2019-03-30T01:37:16.016Z,13.20
2019-03-30T01:39:46.059Z,11.50
2019-03-30T01:42:16.059Z,10.13
2019-03-30T01:44:46.124Z,11.27
2019-03-30T01:47:16.194Z,13.23
2019-03-30T01:49:46.258Z,13.07
2019-03-30T01:52:16.358Z,11.47
2019-03-30T01:54:46.433Z,10.73
2019-03-30T01:57:16.486Z,7.87
2019-03-30T01:59:46.561Z,7.17
2019-03-30T02:02:16.607Z,7.20
2019-03-30T02:04:46.655Z,7.50
2019-03-30T02:07:16.742Z,7.30
2019-03-30T02:09:46.820Z,7.60
2019-03-30T02:12:16.816Z,7.23
2019-03-30T02:14:46.893Z,7.80
2019-03-30T02:17:20.072Z,9.47
2019-03-30T02:19:48.670Z,8.63
2019-03-30T02:22:18.721Z,9.90
2019-03-30T02:24:48.748Z,11.47
2019-03-30T02:27:18.823Z,7.97
2019-03-30T02:29:48.854Z,6.10
2019-03-30T02:32:19.011Z,8.13
2019-03-30T02:34:49.015Z,6.73
2019-03-30T02:37:19.036Z,6.83
2019-03-30T02:39:49.082Z,9.00
2019-03-30T02:42:19.445Z,9.30
2019-03-30T02:44:49.480Z,6.20
2019-03-30T02:47:19.563Z,7.80
2019-03-30T02:49:49.618Z,7.73
2019-03-30T02:52:19.717Z,8.33
2019-03-30T02:54:49.816Z,8.33
2019-03-30T02:57:19.779Z,5.67
2019-03-30T02:59:49.871Z,9.87
2019-03-30T03:02:19.950Z,10.03
2019-03-30T03:04:50.011Z,12.73
2019-03-30T03:07:20.059Z,10.73
2019-03-30T03:09:50.091Z,11.53
2019-03-30T03:12:20.166Z,9.83
2019-03-30T03:14:50.209Z,11.50
2019-03-30T03:17:20.291Z,9.70
2019-03-30T03:19:50.327Z,10.47
2019-03-30T03:22:20.379Z,9.50
2019-03-30T03:24:50.429Z,9.70
2019-03-30T03:27:20.479Z,7.87
2019-03-30T03:29:50.566Z,8.13
2019-03-30T03:32:20.744Z,6.27
2019-03-30T03:34:50.864Z,6.70
2019-03-30T03:37:20.849Z,11.37
2019-03-30T03:39:50.894Z,9.23
2019-03-30T03:42:21.200Z,8.93
2019-03-30T03:44:51.235Z,9.73
2019-03-30T03:47:21.262Z,10.80
2019-03-30T03:49:51.343Z,12.00
2019-03-30T03:52:22.288Z,11.40
2019-03-30T03:54:53.579Z,13.53
2019-03-30T03:57:26.641Z,10.43
2019-03-30T03:59:58.355Z,9.63
2019-03-30T04:02:32.985Z,9.37
2019-03-30T04:05:03.290Z,8.80
2019-03-30T04:07:34.822Z,10.03
2019-03-30T04:10:05.939Z,9.30
2019-03-30T04:12:37.797Z,8.13
2019-03-30T04:15:09.262Z,9.77
2019-03-30T04:17:39.423Z,10.00
2019-03-30T04:20:09.609Z,9.40
2019-03-30T04:22:39.671Z,9.50
2019-03-30T04:25:09.745Z,7.27
2019-03-30T04:27:39.779Z,8.30
2019-03-30T04:30:09.820Z,9.37
2019-03-30T04:32:39.859Z,10.07
2019-03-30T04:35:10.447Z,8.60
2019-03-30T04:37:40.484Z,10.77
2019-03-30T04:40:10.543Z,11.37
2019-03-30T04:42:40.591Z,13.07
2019-03-30T04:45:10.726Z,7.17
2019-03-30T04:47:40.804Z,10.70
2019-03-30T04:50:10.820Z,14.23
2019-03-30T04:52:40.894Z,14.53
2019-03-30T04:55:11.330Z,12.87
2019-03-30T04:57:41.382Z,14.00
2019-03-30T05:00:11.702Z,15.50
2019-03-30T05:02:41.794Z,15.63
2019-03-30T05:05:12.082Z,13.80
2019-03-30T05:07:42.141Z,12.43
2019-03-30T05:10:12.478Z,12.00
2019-03-30T05:12:42.559Z,10.83
2019-03-30T05:15:12.607Z,11.17
2019-03-30T05:17:47.311Z,11.13
2019-03-30T05:20:14.402Z,13.27
2019-03-30T05:22:44.450Z,14.50
2019-03-30T05:25:14.515Z,15.07
2019-03-30T05:27:44.550Z,14.60
2019-03-30T05:30:15.422Z,15.67
2019-03-30T05:32:45.469Z,11.47
2019-03-30T05:35:15.519Z,12.07
2019-03-30T05:37:45.547Z,13.30
2019-03-30T05:40:15.615Z,10.97
2019-03-30T05:42:45.646Z,12.90
2019-03-30T05:45:15.688Z,13.30
2019-03-30T05:47:45.741Z,13.13
2019-03-30T05:50:15.921Z,11.57
2019-03-30T05:52:45.930Z,13.20
2019-03-30T05:55:15.953Z,13.07
2019-03-30T05:57:46.036Z,10.77
2019-03-30T06:00:19.407Z,11.27
2019-03-30T06:02:49.483Z,11.57
2019-03-30T06:05:19.524Z,12.33
2019-03-30T06:07:49.599Z,10.73
2019-03-30T06:10:19.727Z,9.50
2019-03-30T06:12:49.787Z,11.57
2019-03-30T06:15:19.855Z,11.47
2019-03-30T06:17:49.906Z,12.80
2019-03-30T06:20:19.946Z,12.70
2019-03-30T06:22:50.034Z,19.20
2019-03-30T06:25:20.045Z,18.57
2019-03-30T06:27:50.161Z,22.53
2019-03-30T06:30:22.689Z,22.27
2019-03-30T06:32:52.761Z,20.30
2019-03-30T06:35:22.874Z,20.00
2019-03-30T06:37:52.930Z,19.23
2019-03-30T06:40:22.994Z,18.77
2019-03-30T06:42:53.013Z,19.77
2019-03-30T06:45:23.086Z,18.20
2019-03-30T06:47:53.157Z,18.33
2019-03-30T06:50:23.198Z,16.40
2019-03-30T06:52:57.855Z,13.90
2019-03-30T06:55:25.007Z,15.87
2019-03-30T06:57:55.127Z,13.97
2019-03-30T07:00:35.659Z,14.73
2019-03-30T07:03:09.441Z,12.27
2019-03-30T07:05:43.498Z,13.27
2019-03-30T07:08:15.814Z,14.60
2019-03-30T07:10:49.253Z,14.77
2019-03-30T07:13:19.338Z,13.47
2019-03-30T07:15:52.136Z,14.33
2019-03-30T07:18:22.210Z,16.33
2019-03-30T07:20:52.298Z,15.33
2019-03-30T07:23:22.370Z,15.43
2019-03-30T07:25:52.427Z,16.82
2019-03-30T07:28:22.500Z,15.35
2019-03-30T07:30:52.529Z,17.27
2019-03-30T07:33:22.618Z,16.42
2019-03-30T07:35:52.647Z,17.10
2019-03-30T07:38:22.705Z,19.50
2019-03-30T07:40:52.769Z,18.00
2019-03-30T07:43:22.821Z,19.23
2019-03-30T07:45:52.876Z,20.60
2019-03-30T07:48:22.946Z,17.25
2019-03-30T07:50:53.048Z,18.15
2019-03-30T07:53:26.701Z,17.67
2019-03-30T07:56:07.748Z,17.70
2019-03-30T07:58:26.636Z,16.85
2019-03-30T08:00:56.736Z,20.30
2019-03-30T08:03:26.836Z,15.23
2019-03-30T08:05:56.902Z,16.02
2019-03-30T08:08:26.978Z,15.50
2019-03-30T08:10:57.010Z,18.05
2019-03-30T08:13:27.100Z,14.45
2019-03-30T08:15:57.154Z,13.18
2019-03-30T08:18:27.204Z,12.70
2019-03-30T08:20:57.262Z,13.58
2019-03-30T08:23:39.760Z,9.40
2019-03-30T08:25:59.026Z,11.03
2019-03-30T08:28:29.115Z,13.48
2019-03-30T08:30:59.148Z,11.95
2019-03-30T08:33:29.208Z,11.43
2019-03-30T08:35:59.243Z,12.30
2019-03-30T08:38:29.314Z,10.28
2019-03-30T08:40:59.374Z,11.95
2019-03-30T08:43:29.421Z,9.83
2019-03-30T08:45:59.509Z,10.15
2019-03-30T08:48:29.541Z,11.53
2019-03-30T08:50:59.604Z,11.28
2019-03-30T08:53:29.670Z,10.70
2019-03-30T08:55:59.698Z,10.05
2019-03-30T08:58:29.723Z,11.90
2019-03-30T09:00:59.786Z,9.60
2019-03-30T09:03:29.813Z,11.43
2019-03-30T09:05:59.938Z,12.58
2019-03-30T09:08:30.018Z,11.20
2019-03-30T09:11:00.102Z,10.75
2019-03-30T09:13:30.167Z,12.55
2019-03-30T09:16:00.206Z,10.48
2019-03-30T09:18:30.258Z,9.93
2019-03-30T09:21:00.307Z,12.37
2019-03-30T09:23:30.408Z,9.33
2019-03-30T09:26:00.415Z,10.43
2019-03-30T09:28:30.481Z,9.55
2019-03-30T09:31:00.518Z,12.03
2019-03-30T09:33:30.574Z,12.30
2019-03-30T09:36:00.632Z,13.58
2019-03-30T09:38:30.715Z,12.78
2019-03-30T09:41:00.758Z,12.47
2019-03-30T09:43:30.881Z,11.28
2019-03-30T09:46:01.299Z,10.48
2019-03-30T09:48:31.401Z,10.25
2019-03-30T09:58:10.815Z,10.28
2019-03-30T10:00:40.951Z,15.20
2019-03-30T10:03:10.999Z,15.45
2019-03-30T10:05:41.104Z,13.10
2019-03-30T10:08:11.158Z,15.15
2019-03-30T10:10:41.226Z,17.62
2019-03-30T10:13:11.269Z,15.38
2019-03-30T10:15:41.367Z,14.90
2019-03-30T10:18:11.462Z,16.40
2019-03-30T10:20:41.579Z,16.70
2019-03-30T10:23:11.610Z,12.90
2019-03-30T10:25:41.719Z,14.35
2019-03-30T10:28:11.786Z,16.05
2019-03-30T10:30:41.828Z,14.20
2019-03-30T10:33:12.045Z,14.25
2019-03-30T10:35:42.157Z,15.60
2019-03-30T10:38:12.203Z,15.68
2019-03-30T10:40:42.265Z,17.50
2019-03-30T10:43:12.348Z,13.28
2019-03-30T10:45:42.371Z,15.15
2019-03-30T10:48:12.479Z,13.32
2019-03-30T10:50:42.461Z,15.75
2019-03-30T10:53:12.567Z,15.90
2019-03-30T10:55:42.599Z,15.95
2019-03-30T10:58:12.671Z,12.68
2019-03-30T11:00:42.975Z,16.40
2019-03-30T11:03:13.015Z,17.23
2019-03-30T11:05:43.063Z,11.70
2019-03-30T11:08:13.186Z,14.18
2019-03-30T11:10:43.215Z,11.12
2019-03-30T11:13:13.292Z,19.17
2019-03-30T11:15:43.386Z,15.80
2019-03-30T11:18:13.473Z,12.75
2019-03-30T11:20:43.513Z,14.55
2019-03-30T11:23:13.571Z,15.53
2019-03-30T11:25:43.633Z,14.20
2019-03-30T11:28:13.741Z,14.28
2019-03-30T11:30:43.823Z,16.93
2019-03-30T11:33:13.882Z,16.67
2019-03-30T11:35:43.952Z,12.65
2019-03-30T11:38:14.010Z,17.25
2019-03-30T11:40:44.074Z,11.33
2019-03-30T11:43:14.131Z,13.95
2019-03-30T11:45:44.207Z,14.90
2019-03-30T11:48:14.287Z,13.25
2019-03-30T11:50:44.345Z,17.73
2019-03-30T11:53:14.466Z,14.45
2019-03-30T11:55:44.556Z,14.63
2019-03-30T11:58:14.613Z,14.10
2019-03-30T12:00:44.725Z,13.18
2019-03-30T12:03:14.797Z,12.55
2019-03-30T12:05:44.824Z,12.80
2019-03-30T12:08:14.912Z,13.78
2019-03-30T12:10:44.962Z,16.60
2019-03-30T12:13:15.008Z,14.35
2019-03-30T12:15:45.150Z,9.43
2019-03-30T12:18:15.194Z,15.30
2019-03-30T12:20:45.309Z,11.75
2019-03-30T12:23:15.422Z,15.05
2019-03-30T12:25:45.474Z,12.15
2019-03-30T12:28:15.566Z,16.90
2019-03-30T12:30:45.668Z,11.45
2019-03-30T12:33:15.811Z,16.60
2019-03-30T12:35:46.050Z,16.05
2019-03-30T12:38:16.103Z,17.23
2019-03-30T12:40:46.241Z,51.58
2019-03-30T12:43:16.275Z,34.80
2019-03-30T12:45:46.338Z,20.17
2019-03-30T12:48:16.430Z,22.42
2019-03-30T12:50:46.506Z,38.45
2019-03-30T12:53:16.623Z,26.65
2019-03-30T12:55:49.468Z,29.67
2019-03-30T12:58:18.461Z,23.90
2019-03-30T13:00:48.594Z,17.52
2019-03-30T13:03:18.642Z,21.73
2019-03-30T13:05:48.750Z,22.75
2019-03-30T13:08:18.782Z,12.65
2019-03-30T13:10:48.891Z,12.13
2019-03-30T13:13:18.957Z,13.65
2019-03-30T13:15:49.033Z,12.70
2019-03-30T13:18:19.069Z,14.85
2019-03-30T13:20:49.178Z,12.10
2019-03-30T13:23:19.274Z,13.65
2019-03-30T13:26:02.461Z,8.40
2019-03-30T13:28:21.066Z,12.53
2019-03-30T13:30:51.203Z,13.90
2019-03-30T13:33:21.286Z,10.38
2019-03-30T13:35:51.368Z,12.37
2019-03-30T13:38:21.406Z,8.68
2019-03-30T13:40:51.474Z,11.38
2019-03-30T13:43:21.506Z,9.23
2019-03-30T13:45:51.585Z,7.85
2019-03-30T13:48:21.690Z,11.75
2019-03-30T13:50:51.773Z,7.03
2019-03-30T13:53:21.844Z,11.05
2019-03-30T13:55:51.934Z,8.38
2019-03-30T13:58:22.003Z,11.80
2019-03-30T14:00:52.128Z,11.93
2019-03-30T14:03:22.139Z,9.33
2019-03-30T14:05:52.212Z,9.65
2019-03-30T14:08:22.319Z,8.30
2019-03-30T14:10:52.439Z,10.60
2019-03-30T14:13:22.502Z,10.20
2019-03-30T14:15:52.605Z,9.00
2019-03-30T14:18:22.715Z,11.00
2019-03-30T14:20:52.820Z,13.00
2019-03-30T14:23:22.894Z,10.50
2019-03-30T14:25:52.940Z,10.50
2019-03-30T14:28:22.998Z,9.40
2019-03-30T14:30:53.084Z,8.75
2019-03-30T14:33:23.091Z,8.93
2019-03-30T14:35:53.148Z,10.60
2019-03-30T14:38:23.250Z,7.67
2019-03-30T14:40:53.339Z,10.75
2019-03-30T14:43:23.460Z,8.93
2019-03-30T14:45:53.634Z,8.45
2019-03-30T14:59:10.115Z,10.88
2019-03-30T15:01:34.061Z,10.15
2019-03-30T15:04:04.141Z,10.98
2019-03-30T15:06:34.183Z,8.63
2019-03-30T15:09:05.568Z,8.33
2019-03-30T15:11:38.007Z,8.25
2019-03-30T15:14:07.571Z,9.85
2019-03-30T15:16:37.722Z,9.28
2019-03-30T15:19:07.943Z,18.17
2019-03-30T15:21:38.003Z,10.23
2019-03-30T15:24:08.104Z,9.63
2019-03-30T15:26:38.263Z,7.78
2019-03-30T15:29:08.403Z,12.35
2019-03-30T15:31:38.461Z,8.78
2019-03-30T15:34:08.627Z,10.60
2019-03-30T15:36:38.722Z,6.58
2019-03-30T15:39:09.131Z,7.70
2019-03-30T15:41:39.349Z,11.25
2019-03-30T15:44:09.386Z,10.03
2019-03-30T15:46:39.544Z,9.38
2019-03-30T15:49:10.441Z,9.33
2019-03-30T15:51:40.687Z,8.80
2019-03-30T15:54:10.818Z,8.73
2019-03-30T15:56:40.860Z,10.48
2019-03-30T15:59:10.999Z,9.88
2019-03-30T16:01:41.123Z,9.90
2019-03-30T16:04:11.250Z,16.90
2019-03-30T16:06:41.385Z,9.70
2019-03-30T16:09:11.702Z,10.65
2019-03-30T16:11:41.685Z,12.13
2019-03-30T16:14:11.922Z,7.10
2019-03-30T16:16:42.035Z,11.70
2019-03-30T16:19:12.115Z,10.35
2019-03-30T16:21:42.178Z,10.70
2019-03-30T16:24:12.246Z,10.65
2019-03-30T16:26:42.659Z,8.25
2019-03-30T16:29:12.829Z,8.73
2019-03-30T16:31:42.927Z,10.65
2019-03-30T16:34:13.051Z,10.28
2019-03-30T16:36:43.177Z,9.40
2019-03-30T16:39:13.203Z,12.88
2019-03-30T16:41:43.289Z,11.03
2019-03-30T16:44:13.357Z,8.63
2019-03-30T16:46:43.427Z,9.53
2019-03-30T16:49:13.489Z,9.85
2019-03-30T16:51:43.589Z,10.98
2019-03-30T16:54:13.578Z,7.65
2019-03-30T16:56:43.629Z,9.88
2019-03-30T16:59:13.953Z,8.23
2019-03-30T17:01:44.278Z,10.43
2019-03-30T17:04:14.350Z,14.58
2019-03-30T17:06:44.423Z,8.93
2019-03-30T17:09:14.487Z,11.73
2019-03-30T17:11:44.542Z,8.25
2019-03-30T17:14:14.634Z,12.00
2019-03-30T17:16:44.672Z,8.48
2019-03-30T17:19:14.747Z,8.13
2019-03-30T17:21:44.794Z,9.40
2019-03-30T17:24:14.853Z,9.98
2019-03-30T17:26:44.879Z,9.08
2019-03-30T17:29:14.984Z,10.10
2019-03-30T17:31:45.016Z,13.18
2019-03-30T17:34:15.179Z,13.30
2019-03-30T17:36:45.302Z,10.53
2019-03-30T17:39:15.522Z,12.07
2019-03-30T17:41:45.634Z,12.47
2019-03-30T17:44:15.692Z,13.03
2019-03-30T17:46:45.883Z,11.93
2019-03-30T17:49:15.980Z,10.93
2019-03-30T17:51:46.061Z,13.68
2019-03-30T17:54:16.165Z,13.22
2019-03-30T17:56:46.277Z,10.18
2019-03-30T17:59:16.524Z,12.25
2019-03-30T18:01:46.627Z,12.75
2019-03-30T18:04:16.768Z,11.80
2019-03-30T18:06:46.947Z,10.82
2019-03-30T18:09:17.126Z,13.68
2019-03-30T18:11:47.242Z,10.98
2019-03-30T18:14:17.443Z,12.15
2019-03-30T18:16:47.632Z,11.28
2019-03-30T18:19:17.773Z,12.10
2019-03-30T18:21:48.064Z,14.18
2019-03-30T18:24:18.301Z,15.40
2019-03-30T18:26:48.636Z,15.30
2019-03-30T18:29:18.698Z,13.18
2019-03-30T18:31:48.966Z,13.13
2019-03-30T18:34:18.996Z,11.95
2019-03-30T18:36:51.426Z,12.93
2019-03-30T18:39:21.579Z,11.78
2019-03-30T18:41:51.666Z,12.45
2019-03-30T18:44:21.832Z,10.85
2019-03-30T18:46:51.904Z,13.78
2019-03-30T18:49:21.939Z,16.80
2019-03-30T18:51:52.090Z,11.30
2019-03-30T18:54:22.598Z,14.90
2019-03-30T18:56:52.662Z,10.08
2019-03-30T18:59:22.738Z,10.78
2019-03-30T19:01:52.796Z,13.85
2019-03-30T19:04:22.953Z,16.07
2019-03-30T19:06:53.022Z,14.07
2019-03-30T19:09:23.116Z,11.78
2019-03-30T19:11:53.157Z,11.55
2019-03-30T19:14:23.227Z,10.88
2019-03-30T19:16:53.320Z,14.87
2019-03-30T19:19:23.383Z,11.90
2019-03-30T19:21:53.423Z,11.35
2019-03-30T19:24:23.523Z,13.98
2019-03-30T19:26:53.627Z,11.73
2019-03-30T19:29:23.684Z,11.03
2019-03-30T19:31:53.722Z,14.93
2019-03-30T19:34:23.763Z,16.85
2019-03-30T19:36:53.843Z,12.07
2019-03-30T19:39:23.911Z,13.85
2019-03-30T19:41:54.060Z,14.30
2019-03-30T19:44:24.098Z,13.20
2019-03-30T19:46:54.191Z,14.07
2019-03-30T19:49:25.229Z,14.98
2019-03-30T19:51:55.330Z,18.25
2019-03-30T19:54:25.390Z,15.08
2019-03-30T19:56:55.396Z,13.08
2019-03-30T19:59:25.488Z,15.23
2019-03-30T20:01:55.507Z,14.73
2019-03-30T20:04:25.611Z,14.43
2019-03-30T20:06:55.658Z,15.53
2019-03-30T20:09:25.755Z,13.13
2019-03-30T20:11:55.833Z,14.28
2019-03-30T20:14:25.931Z,13.88
2019-03-30T20:16:55.996Z,15.63
2019-03-30T20:19:26.087Z,15.85
2019-03-30T20:21:57.469Z,15.70
2019-03-30T20:24:27.603Z,16.02
2019-03-30T20:26:57.634Z,15.25
2019-03-30T20:29:27.722Z,16.87
2019-03-30T20:31:57.811Z,13.43
2019-03-30T20:34:27.859Z,15.20
2019-03-30T20:36:57.923Z,12.35
2019-03-30T20:39:27.963Z,12.68
2019-03-30T20:41:58.045Z,10.10
2019-03-30T20:44:28.083Z,15.50
2019-03-30T20:46:58.151Z,14.93
2019-03-30T20:49:28.215Z,14.78
2019-03-30T20:51:58.278Z,16.35
2019-03-30T20:54:28.343Z,16.02
2019-03-30T20:56:58.422Z,12.10
2019-03-30T20:59:39.277Z,12.65
2019-03-30T21:02:00.186Z,16.52
2019-03-30T21:04:30.235Z,12.20
2019-03-30T21:07:00.332Z,16.65
2019-03-30T21:09:30.437Z,16.48
2019-03-30T21:12:00.521Z,12.70
2019-03-30T21:14:30.614Z,15.05
2019-03-30T21:17:00.682Z,15.90
2019-03-30T21:19:30.747Z,17.98
2019-03-30T21:22:00.782Z,15.95
2019-03-30T21:24:50.154Z,15.68
2019-03-30T21:27:21.377Z,17.30
2019-03-30T21:29:54.748Z,18.05
2019-03-30T21:32:23.288Z,14.25
2019-03-30T21:34:53.419Z,17.12
2019-03-30T21:37:23.551Z,19.37
2019-03-30T21:39:53.686Z,14.98
2019-03-30T21:42:23.785Z,17.67
2019-03-30T21:44:53.863Z,17.55
2019-03-30T21:47:23.930Z,19.05
2019-03-30T21:49:54.146Z,14.80
2019-03-30T21:52:25.725Z,14.78
2019-03-30T21:54:58.089Z,12.93
2019-03-30T21:57:28.323Z,16.42
2019-03-30T22:00:10.542Z,14.55
2019-03-30T22:02:36.299Z,15.93
2019-03-30T22:05:07.598Z,16.93
2019-03-30T22:07:38.566Z,13.43
2019-03-30T22:10:12.076Z,18.10
2019-03-30T22:12:43.449Z,14.10
2019-03-30T22:15:18.548Z,16.20
2019-03-30T22:17:48.590Z,14.68
2019-03-30T22:20:21.279Z,15.90
2019-03-30T22:22:50.394Z,20.80
2019-03-30T22:25:20.480Z,15.45
2019-03-30T22:27:50.566Z,14.45
2019-03-30T22:30:25.034Z,14.07
2019-03-30T22:32:52.304Z,20.82
2019-03-30T22:35:22.372Z,18.45
2019-03-30T22:37:52.465Z,14.85
2019-03-30T22:40:22.507Z,18.17
2019-03-30T22:42:52.614Z,13.88
2019-03-30T22:45:22.693Z,16.73
2019-03-30T22:47:52.749Z,17.75
2019-03-30T22:50:23.314Z,17.67
2019-03-30T22:52:53.377Z,18.42
2019-03-30T22:55:23.546Z,21.48
2019-03-30T22:57:53.669Z,26.95
2019-03-30T23:00:41.323Z,24.37
2019-03-30T23:03:11.761Z,20.50
2019-03-30T23:05:41.930Z,22.40
2019-03-30T23:08:11.883Z,20.08
2019-03-30T23:10:41.934Z,22.50
2019-03-30T23:13:12.011Z,25.50
2019-03-30T23:15:42.122Z,27.70
2019-03-30T23:18:14.277Z,23.67
2019-03-30T23:20:44.337Z,22.83
2019-03-30T23:23:14.375Z,32.08
2019-03-30T23:25:44.445Z,29.50
2019-03-30T23:28:14.493Z,26.10
2019-03-30T23:30:54.076Z,36.40
2019-03-30T23:33:16.257Z,25.47
2019-03-30T23:35:46.347Z,33.30
2019-03-30T23:38:17.647Z,28.37
2019-03-30T23:40:47.721Z,29.13
2019-03-30T23:43:17.835Z,30.20
2019-03-30T23:45:47.818Z,32.27
2019-03-30T23:48:17.886Z,27.57
2019-03-30T23:50:47.962Z,29.33
2019-03-30T23:53:18.066Z,34.33
2019-03-30T23:55:48.102Z,32.07
2019-03-30T23:58:18.185Z,33.87
